Time;durP1;ratioP1;P1;durP2;ratioP2;P2;SDS_P1;SDS_P2;PMS_P1;PMS_P2;Temp;Humidity;BMP_temperature;BMP_pressure;BME280_temperature;BME280_humidity;BME280_pressure;Samples;Min_cycle;Max_cycle;Signal;HPM_P1;HPM_P2
2021/12/13 00:02:00;;;;;;;16.67;9.87;;;;;;;;;;4984728;28;20224;-55
2021/12/13 00:04:42;;;;;;;15.77;10.47;;;;;;;;;;4996802;28;20240;-55
2021/12/13 00:07:13;;;;;;;12.53;10.40;;;;;;;;;;4998356;28;20740;-55
2021/12/13 00:09:39;;;;;;;12.97;10.40;;;;;;;;;;5005985;28;20718;-55
2021/12/13 00:12:06;;;;;;;13.43;11.30;;;;;;;;;;5004209;28;22507;-54
2021/12/13 00:14:33;;;;;;;13.67;10.60;;;;;;;;;;5002356;28;20236;-55
2021/12/13 00:17:09;;;;;;;13.53;11.07;;;;;;;;;;5001047;28;20314;-55
2021/12/13 00:19:51;;;;;;;12.83;10.47;;;;;;;;;;5002670;28;20228;-56
2021/12/13 00:22:19;;;;;;;14.80;11.10;;;;;;;;;;4999819;28;20637;-55
2021/12/13 00:24:46;;;;;;;11.60;9.93;;;;;;;;;;5007219;28;20232;-56
2021/12/13 00:27:16;;;;;;;15.13;10.93;;;;;;;;;;4983414;28;20228;-55
2021/12/13 00:29:42;;;;;;;11.00;9.80;;;;;;;;;;5007570;28;20236;-55
2021/12/13 00:32:11;;;;;;;12.43;9.43;;;;;;;;;;5002926;28;20858;-56
2021/12/13 00:34:44;;;;;;;10.97;9.20;;;;;;;;;;5003311;28;20236;-55
2021/12/13 00:37:11;;;;;;;11.83;9.10;;;;;;;;;;5001006;28;20687;-55
2021/12/13 00:39:45;;;;;;;11.33;8.77;;;;;;;;;;5006055;28;20612;-55
2021/12/13 00:42:11;;;;;;;9.00;8.10;;;;;;;;;;5004686;28;20267;-55
2021/12/13 00:44:38;;;;;;;9.93;8.17;;;;;;;;;;4984826;28;20335;-55
2021/12/13 00:47:06;;;;;;;8.70;7.83;;;;;;;;;;5004201;28;20239;-55
2021/12/13 00:49:32;;;;;;;8.53;7.33;;;;;;;;;;5009559;28;20232;-55
2021/12/13 00:51:58;;;;;;;8.70;7.70;;;;;;;;;;4983224;28;20590;-55
2021/12/13 00:54:26;;;;;;;10.47;7.83;;;;;;;;;;5006457;28;20232;-55
2021/12/13 00:57:03;;;;;;;10.20;7.47;;;;;;;;;;5002531;28;20225;-55
2021/12/13 00:59:30;;;;;;;8.63;7.73;;;;;;;;;;4999512;28;20501;-55
2021/12/13 01:02:14;;;;;;;10.83;7.50;;;;;;;;;;5006855;28;20233;-55
2021/12/13 01:04:59;;;;;;;8.13;7.17;;;;;;;;;;5005149;28;20637;-55
2021/12/13 01:07:40;;;;;;;7.60;6.53;;;;;;;;;;5009163;28;20236;-55
2021/12/13 01:10:25;;;;;;;9.30;7.30;;;;;;;;;;5000384;28;20247;-55
2021/12/13 01:12:51;;;;;;;9.63;7.07;;;;;;;;;;5002550;28;20287;-55
2021/12/13 01:15:28;;;;;;;7.43;6.47;;;;;;;;;;5009992;28;20324;-55
2021/12/13 01:18:00;;;;;;;8.43;6.73;;;;;;;;;;5009691;28;20323;-55
2021/12/13 01:20:44;;;;;;;9.70;6.63;;;;;;;;;;5009159;28;20224;-55
2021/12/13 01:23:15;;;;;;;7.97;6.50;;;;;;;;;;5008221;28;20719;-55
2021/12/13 01:25:46;;;;;;;10.00;6.07;;;;;;;;;;5007753;28;20780;-55
2021/12/13 01:28:22;;;;;;;8.10;5.80;;;;;;;;;;5006003;28;20274;-55
2021/12/13 01:30:51;;;;;;;6.67;5.73;;;;;;;;;;5008314;28;20279;-55
2021/12/13 01:33:17;;;;;;;7.90;6.10;;;;;;;;;;5006634;28;20240;-54
2021/12/13 01:35:44;;;;;;;7.30;5.80;;;;;;;;;;5009927;28;20712;-54
2021/12/13 01:38:12;;;;;;;7.13;5.77;;;;;;;;;;5002608;28;20237;-54
2021/12/13 01:40:38;;;;;;;8.17;5.60;;;;;;;;;;4993942;28;20221;-53
2021/12/13 01:43:15;;;;;;;6.07;5.50;;;;;;;;;;4989356;28;20268;-55
2021/12/13 01:45:41;;;;;;;8.13;5.67;;;;;;;;;;4997242;28;20241;-55
2021/12/13 01:48:07;;;;;;;6.87;5.20;;;;;;;;;;4989333;28;21273;-55
2021/12/13 01:50:46;;;;;;;6.67;5.20;;;;;;;;;;4974344;28;20220;-56
2021/12/13 01:53:12;;;;;;;9.03;5.50;;;;;;;;;;4996715;28;20362;-55
2021/12/13 01:55:40;;;;;;;8.17;5.37;;;;;;;;;;5007470;28;20870;-55
2021/12/13 02:01:10;;;;;;;7.37;5.80;;;;;;;;;;5001820;28;20228;-54
2021/12/13 02:03:56;;;;;;;6.90;5.60;;;;;;;;;;5008369;28;20236;-55
2021/12/13 02:06:31;;;;;;;6.07;5.30;;;;;;;;;;5008664;28;20557;-54
2021/12/13 02:08:59;;;;;;;7.33;5.23;;;;;;;;;;5009725;28;20263;-55
2021/12/13 02:11:25;;;;;;;9.17;5.40;;;;;;;;;;5001837;28;20749;-55
2021/12/13 02:14:05;;;;;;;7.00;5.43;;;;;;;;;;5009004;28;20278;-54
2021/12/13 02:19:20;;;;;;;5.53;5.03;;;;;;;;;;5008100;28;20279;-55
2021/12/13 02:21:46;;;;;;;7.87;5.73;;;;;;;;;;5005546;28;20240;-55
2021/12/13 02:24:12;;;;;;;6.70;5.87;;;;;;;;;;5005054;28;20240;-55
2021/12/13 02:26:40;;;;;;;6.73;6.00;;;;;;;;;;5003242;28;20747;-55
2021/12/13 02:29:08;;;;;;;6.73;6.07;;;;;;;;;;5009993;28;20264;-55
2021/12/13 02:31:36;;;;;;;6.67;5.87;;;;;;;;;;5003640;28;20239;-55
2021/12/13 02:34:06;;;;;;;6.70;6.00;;;;;;;;;;5003923;28;20287;-56
2021/12/13 02:36:40;;;;;;;7.43;6.23;;;;;;;;;;5003280;28;20239;-55
2021/12/13 02:39:07;;;;;;;7.70;6.17;;;;;;;;;;5000841;28;20362;-55
2021/12/13 02:41:34;;;;;;;6.50;5.90;;;;;;;;;;5008099;28;20673;-55
2021/12/13 02:44:02;;;;;;;7.03;6.33;;;;;;;;;;5002917;28;20787;-54
2021/12/13 02:46:28;;;;;;;9.10;6.90;;;;;;;;;;5003434;28;21244;-55
2021/12/13 02:48:58;;;;;;;9.57;6.87;;;;;;;;;;5000516;28;20246;-55
2021/12/13 02:51:32;;;;;;;7.53;6.77;;;;;;;;;;4999417;28;20236;-55
2021/12/13 02:53:59;;;;;;;8.10;7.30;;;;;;;;;;5004901;28;20340;-55
2021/12/13 02:56:27;;;;;;;8.17;7.23;;;;;;;;;;5007831;28;21046;-55
2021/12/13 02:58:55;;;;;;;8.13;7.33;;;;;;;;;;5002990;28;20272;-55
2021/12/13 03:01:23;;;;;;;9.10;7.57;;;;;;;;;;5008603;28;20240;-55
2021/12/13 03:03:51;;;;;;;8.30;7.40;;;;;;;;;;4993208;28;20246;-55
2021/12/13 03:06:18;;;;;;;9.63;7.43;;;;;;;;;;5005391;28;20236;-55
2021/12/13 03:08:46;;;;;;;7.80;6.90;;;;;;;;;;5005082;28;20247;-54
2021/12/13 03:11:18;;;;;;;7.90;7.00;;;;;;;;;;5006689;28;20240;-54
2021/12/13 03:13:44;;;;;;;7.87;7.07;;;;;;;;;;5004590;28;20239;-54
2021/12/13 03:16:12;;;;;;;7.73;6.30;;;;;;;;;;4982636;28;20676;-55
2021/12/13 03:18:40;;;;;;;8.10;6.60;;;;;;;;;;5009157;28;20229;-54
2021/12/13 03:21:25;;;;;;;9.33;6.17;;;;;;;;;;4989265;28;20237;-55
2021/12/13 03:24:01;;;;;;;7.73;6.30;;;;;;;;;;5007791;28;20240;-55
2021/12/13 03:26:52;;;;;;;8.70;6.10;;;;;;;;;;4985827;28;20240;-55
2021/12/13 03:29:18;;;;;;;8.33;6.00;;;;;;;;;;4985233;28;21140;-54
2021/12/13 03:31:46;;;;;;;6.77;5.37;;;;;;;;;;5011529;28;20244;-55
2021/12/13 03:34:19;;;;;;;7.33;5.83;;;;;;;;;;5009353;28;20233;-54
2021/12/13 03:36:47;;;;;;;6.20;5.60;;;;;;;;;;5004256;28;20241;-54
2021/12/13 03:39:15;;;;;;;9.40;6.13;;;;;;;;;;5002793;28;20984;-55
2021/12/13 03:41:41;;;;;;;7.90;6.00;;;;;;;;;;4997593;28;20221;-55
2021/12/13 03:44:11;;;;;;;6.50;5.63;;;;;;;;;;5004613;28;20233;-55
2021/12/13 03:46:37;;;;;;;7.30;5.50;;;;;;;;;;5007551;28;20327;-54
2021/12/13 03:49:03;;;;;;;6.50;5.10;;;;;;;;;;5006291;28;20225;-54
2021/12/13 03:51:30;;;;;;;6.87;5.60;;;;;;;;;;5004004;28;20250;-55
2021/12/13 03:53:57;;;;;;;5.63;5.07;;;;;;;;;;5010986;28;20233;-55
2021/12/13 03:56:26;;;;;;;8.20;5.77;;;;;;;;;;5004092;28;20241;-55
2021/12/13 03:58:52;;;;;;;6.63;5.30;;;;;;;;;;5004573;28;20236;-54
2021/12/13 04:01:29;;;;;;;6.67;5.70;;;;;;;;;;5007344;28;20231;-54
2021/12/13 04:03:56;;;;;;;7.10;5.20;;;;;;;;;;4998267;28;20248;-55
2021/12/13 04:06:21;;;;;;;5.70;5.10;;;;;;;;;;5001598;28;20631;-54
2021/12/13 04:08:54;;;;;;;8.53;5.20;;;;;;;;;;5009413;28;20264;-54
2021/12/13 04:11:22;;;;;;;5.57;5.03;;;;;;;;;;5002642;28;20283;-55
2021/12/13 04:13:54;;;;;;;7.03;5.83;;;;;;;;;;5004209;28;20232;-55
2021/12/13 04:16:29;;;;;;;6.00;5.40;;;;;;;;;;5001189;28;20287;-55
2021/12/13 04:19:08;;;;;;;5.53;5.00;;;;;;;;;;5001835;28;20254;-55
2021/12/13 04:21:34;;;;;;;5.87;5.27;;;;;;;;;;5008301;28;20599;-54
2021/12/13 04:24:01;;;;;;;5.77;5.00;;;;;;;;;;5006301;28;20241;-55
2021/12/13 04:26:28;;;;;;;6.07;5.23;;;;;;;;;;5007102;28;20236;-54
2021/12/13 04:28:56;;;;;;;7.87;5.47;;;;;;;;;;5004006;28;20221;-55
2021/12/13 04:31:23;;;;;;;5.67;4.73;;;;;;;;;;5007092;28;20236;-55
2021/12/13 04:33:50;;;;;;;7.53;4.90;;;;;;;;;;5012319;28;20259;-55
2021/12/13 04:36:36;;;;;;;6.27;5.50;;;;;;;;;;5010218;28;20237;-55
2021/12/13 04:39:32;;;;;;;5.33;4.83;;;;;;;;;;5008236;28;20235;-53
2021/12/13 04:41:59;;;;;;;8.13;5.13;;;;;;;;;;4993077;28;20240;-55
2021/12/13 04:44:30;;;;;;;6.13;5.30;;;;;;;;;;5011835;28;20231;-55
2021/12/13 04:46:56;;;;;;;6.17;5.13;;;;;;;;;;5003523;28;20236;-54
2021/12/13 04:49:23;;;;;;;8.20;5.17;;;;;;;;;;4997096;28;20229;-55
2021/12/13 04:51:54;;;;;;;7.13;5.33;;;;;;;;;;5010001;28;20770;-55
2021/12/13 04:54:20;;;;;;;7.30;5.43;;;;;;;;;;5013069;28;20324;-54
2021/12/13 04:56:46;;;;;;;5.87;5.33;;;;;;;;;;5010351;28;20352;-54
2021/12/13 04:59:13;;;;;;;7.60;5.27;;;;;;;;;;5011322;28;20256;-55
2021/12/13 05:01:39;;;;;;;6.00;5.40;;;;;;;;;;4984307;28;20880;-55
2021/12/13 05:04:06;;;;;;;8.67;5.40;;;;;;;;;;5000858;28;20842;-54
2021/12/13 05:06:33;;;;;;;6.00;5.23;;;;;;;;;;5005090;28;20293;-54
2021/12/13 05:09:00;;;;;;;7.63;5.47;;;;;;;;;;5002985;28;21118;-55
2021/12/13 05:11:33;;;;;;;7.47;5.67;;;;;;;;;;5004308;28;20349;-54
2021/12/13 05:13:59;;;;;;;9.00;5.90;;;;;;;;;;5001968;28;20395;-54
2021/12/13 05:16:36;;;;;;;8.27;5.77;;;;;;;;;;5001370;28;20283;-55
2021/12/13 05:19:03;;;;;;;7.13;5.60;;;;;;;;;;5005076;28;20928;-55
2021/12/13 05:21:40;;;;;;;9.37;5.97;;;;;;;;;;5004152;28;20690;-54
2021/12/13 05:24:10;;;;;;;6.60;5.20;;;;;;;;;;5002871;28;20247;-54
2021/12/13 05:26:37;;;;;;;10.63;5.73;;;;;;;;;;5002429;28;20968;-54
2021/12/13 05:29:04;;;;;;;6.93;5.53;;;;;;;;;;4993347;28;20229;-55
2021/12/13 05:31:30;;;;;;;5.93;5.10;;;;;;;;;;4995025;28;20316;-55
2021/12/13 05:33:57;;;;;;;8.23;5.40;;;;;;;;;;5005879;28;24575;-55
2021/12/13 05:36:24;;;;;;;9.37;5.37;;;;;;;;;;5002377;28;20237;-54
2021/12/13 05:39:00;;;;;;;7.93;5.40;;;;;;;;;;5006302;28;20369;-61
2021/12/13 05:41:26;;;;;;;9.13;5.23;;;;;;;;;;4990673;28;20286;-61
2021/12/13 05:43:53;;;;;;;8.27;4.77;;;;;;;;;;5004825;28;20270;-61
2021/12/13 05:46:20;;;;;;;8.43;5.00;;;;;;;;;;5005120;28;20236;-61
2021/12/13 05:48:52;;;;;;;7.10;4.50;;;;;;;;;;5010778;28;20240;-61
2021/12/13 05:51:24;;;;;;;8.07;4.20;;;;;;;;;;5008137;28;20729;-61
2021/12/13 05:53:56;;;;;;;5.33;4.17;;;;;;;;;;4999784;28;20278;-61
2021/12/13 05:56:22;;;;;;;5.77;4.30;;;;;;;;;;4999994;28;20603;-61
2021/12/13 05:58:55;;;;;;;6.20;4.63;;;;;;;;;;5001151;28;20256;-61
2021/12/13 06:01:28;;;;;;;6.97;4.77;;;;;;;;;;4994979;28;20229;-61
2021/12/13 06:03:54;;;;;;;8.27;4.90;;;;;;;;;;4999909;28;20833;-61
2021/12/13 06:06:22;;;;;;;7.53;6.40;;;;;;;;;;5003792;28;20368;-61
2021/12/13 06:08:49;;;;;;;23.53;16.17;;;;;;;;;;4996970;28;20241;-61
2021/12/13 06:11:19;;;;;;;15.97;11.13;;;;;;;;;;4991955;28;20361;-61
2021/12/13 06:13:46;;;;;;;10.50;9.50;;;;;;;;;;5004863;28;20237;-65
2021/12/13 06:16:25;;;;;;;8.67;6.80;;;;;;;;;;4999253;28;20240;-61
2021/12/13 06:19:11;;;;;;;9.17;5.30;;;;;;;;;;5002451;28;20253;-60
2021/12/13 06:21:56;;;;;;;9.73;5.87;;;;;;;;;;4999293;28;20268;-55
2021/12/13 06:24:32;;;;;;;10.43;6.30;;;;;;;;;;4991059;28;20247;-55
2021/12/13 06:27:06;;;;;;;8.97;6.60;;;;;;;;;;5000392;28;20233;-55
2021/12/13 06:29:49;;;;;;;8.83;6.60;;;;;;;;;;5000110;28;20233;-55
2021/12/13 06:32:25;;;;;;;9.00;6.80;;;;;;;;;;4995068;28;20252;-55
2021/12/13 06:34:51;;;;;;;8.20;6.17;;;;;;;;;;5005015;28;20691;-55
2021/12/13 06:37:28;;;;;;;8.10;6.87;;;;;;;;;;4998087;28;20618;-55
2021/12/13 06:40:09;;;;;;;9.40;6.20;;;;;;;;;;4997164;28;20644;-55
2021/12/13 06:42:35;;;;;;;7.70;6.07;;;;;;;;;;5000592;28;20282;-55
2021/12/13 06:45:01;;;;;;;9.20;6.60;;;;;;;;;;5000397;28;20228;-55
2021/12/13 06:47:27;;;;;;;8.33;6.53;;;;;;;;;;5006600;28;20835;-55
2021/12/13 06:49:54;;;;;;;8.60;6.27;;;;;;;;;;5003795;28;20741;-56
2021/12/13 06:52:23;;;;;;;8.77;6.67;;;;;;;;;;5007657;28;20588;-56
2021/12/13 06:54:49;;;;;;;9.57;6.60;;;;;;;;;;5006466;28;20335;-55
2021/12/13 06:57:17;;;;;;;7.77;5.90;;;;;;;;;;5005227;28;20236;-56
2021/12/13 06:59:55;;;;;;;9.57;6.33;;;;;;;;;;5012968;28;20237;-55
2021/12/13 07:02:22;;;;;;;7.37;6.10;;;;;;;;;;5006501;28;20241;-55
2021/12/13 07:04:54;;;;;;;6.20;5.43;;;;;;;;;;5005621;28;20285;-55
2021/12/13 07:07:22;;;;;;;7.33;5.53;;;;;;;;;;5006853;28;20246;-55
2021/12/13 07:09:55;;;;;;;6.77;6.07;;;;;;;;;;5007554;28;20255;-55
2021/12/13 07:12:21;;;;;;;7.27;5.60;;;;;;;;;;5005324;28;20232;-55
2021/12/13 07:14:48;;;;;;;6.53;5.30;;;;;;;;;;5013969;28;20710;-55
2021/12/13 07:17:16;;;;;;;6.33;5.50;;;;;;;;;;5009632;28;20236;-55
2021/12/13 07:19:43;;;;;;;7.13;5.80;;;;;;;;;;5007087;28;20255;-55
2021/12/13 07:22:09;;;;;;;6.30;5.70;;;;;;;;;;5008939;28;20251;-55
2021/12/13 07:24:42;;;;;;;6.67;5.50;;;;;;;;;;4997038;28;20709;-55
2021/12/13 07:27:09;;;;;;;6.37;5.30;;;;;;;;;;4995679;28;20379;-55
2021/12/13 07:29:35;;;;;;;6.70;5.60;;;;;;;;;;4977956;28;20261;-54
2021/12/13 07:32:19;;;;;;;10.67;5.23;;;;;;;;;;5001530;28;20611;-55
2021/12/13 07:34:48;;;;;;;6.03;5.13;;;;;;;;;;5005885;28;20316;-55
2021/12/13 07:37:14;;;;;;;7.33;5.23;;;;;;;;;;5006906;28;20318;-55
2021/12/13 07:39:40;;;;;;;6.90;4.83;;;;;;;;;;5008016;28;20321;-55
2021/12/13 07:42:07;;;;;;;6.03;5.43;;;;;;;;;;4983644;28;20236;-56
2021/12/13 07:44:39;;;;;;;8.33;4.93;;;;;;;;;;5007192;28;20853;-55
2021/12/13 07:47:13;;;;;;;7.10;5.10;;;;;;;;;;5006018;28;20243;-55
2021/12/13 07:49:42;;;;;;;9.53;5.30;;;;;;;;;;5007517;28;20244;-56
2021/12/13 07:52:08;;;;;;;5.93;5.30;;;;;;;;;;4998692;28;20232;-55
2021/12/13 07:54:38;;;;;;;5.50;4.57;;;;;;;;;;5004027;28;20237;-55
2021/12/13 07:57:05;;;;;;;7.60;4.43;;;;;;;;;;5005017;28;20649;-55
2021/12/13 07:59:39;;;;;;;7.67;4.73;;;;;;;;;;5000158;28;20236;-55
2021/12/13 08:02:10;;;;;;;4.90;4.37;;;;;;;;;;5005550;28;20296;-55
2021/12/13 08:04:42;;;;;;;6.30;4.20;;;;;;;;;;5004707;28;21069;-55
2021/12/13 08:07:12;;;;;;;5.93;4.20;;;;;;;;;;5002231;28;20294;-55
2021/12/13 08:09:50;;;;;;;5.13;3.93;;;;;;;;;;5002289;28;20292;-56
2021/12/13 08:12:17;;;;;;;5.50;3.97;;;;;;;;;;5005026;28;20241;-56
2021/12/13 08:14:45;;;;;;;6.00;4.23;;;;;;;;;;5002894;28;22871;-55
2021/12/13 08:17:31;;;;;;;5.13;3.90;;;;;;;;;;4983538;28;20233;-55
2021/12/13 08:19:57;;;;;;;5.53;3.80;;;;;;;;;;5008039;28;20256;-55
2021/12/13 08:22:28;;;;;;;8.90;4.47;;;;;;;;;;5006269;28;20830;-56
2021/12/13 08:24:54;;;;;;;5.77;4.73;;;;;;;;;;5006079;28;20243;-55
2021/12/13 08:27:31;;;;;;;4.67;4.10;;;;;;;;;;5009013;28;20282;-56
2021/12/13 08:30:17;;;;;;;6.80;4.07;;;;;;;;;;4984550;28;20590;-54
2021/12/13 08:32:58;;;;;;;6.27;4.30;;;;;;;;;;5000116;28;20228;-55
2021/12/13 08:35:23;;;;;;;5.77;4.00;;;;;;;;;;5001911;28;20278;-55
2021/12/13 08:37:56;;;;;;;7.03;4.00;;;;;;;;;;4992728;28;20684;-55
2021/12/13 08:40:24;;;;;;;7.30;4.33;;;;;;;;;;5001578;28;20726;-55
2021/12/13 08:42:50;;;;;;;4.13;3.70;;;;;;;;;;5006770;28;20247;-55
2021/12/13 08:45:21;;;;;;;4.50;4.10;;;;;;;;;;5000278;28;20252;-55
2021/12/13 08:47:48;;;;;;;6.67;4.27;;;;;;;;;;5007111;28;20694;-55
2021/12/13 08:50:19;;;;;;;7.47;4.50;;;;;;;;;;5008969;28;20244;-56
2021/12/13 08:52:46;;;;;;;7.37;4.60;;;;;;;;;;5004969;28;20232;-55
2021/12/13 08:55:12;;;;;;;6.17;4.43;;;;;;;;;;5001206;28;20228;-56
2021/12/13 08:57:54;;;;;;;7.60;4.57;;;;;;;;;;4994660;28;20816;-55
2021/12/13 09:00:35;;;;;;;6.80;4.30;;;;;;;;;;4999316;28;20233;-55
2021/12/13 09:03:20;;;;;;;5.43;4.30;;;;;;;;;;5003522;28;20642;-56
2021/12/13 09:05:50;;;;;;;6.47;5.33;;;;;;;;;;5000326;28;20237;-55
2021/12/13 09:08:16;;;;;;;6.00;4.87;;;;;;;;;;5001936;28;20245;-54
2021/12/13 09:10:45;;;;;;;7.03;4.47;;;;;;;;;;5002761;28;21257;-54
2021/12/13 09:13:11;;;;;;;6.63;4.70;;;;;;;;;;5002163;28;20278;-55
2021/12/13 09:15:37;;;;;;;4.60;4.20;;;;;;;;;;4994497;28;20244;-55
2021/12/13 09:18:04;;;;;;;4.30;3.90;;;;;;;;;;5001097;28;20364;-55
2021/12/13 09:20:33;;;;;;;4.77;3.97;;;;;;;;;;5011215;28;20242;-55
2021/12/13 09:23:14;;;;;;;7.53;4.03;;;;;;;;;;4985766;28;20240;-55
2021/12/13 09:26:03;;;;;;;4.60;3.43;;;;;;;;;;4997138;28;20323;-56
2021/12/13 09:28:31;;;;;;;6.70;3.40;;;;;;;;;;4995841;28;20257;-55
2021/12/13 09:30:59;;;;;;;4.03;3.40;;;;;;;;;;5004982;28;20244;-55
2021/12/13 09:33:29;;;;;;;4.27;3.30;;;;;;;;;;5005517;28;20228;-55
2021/12/13 09:35:59;;;;;;;6.27;3.07;;;;;;;;;;5005454;28;20233;-54
2021/12/13 09:38:30;;;;;;;5.37;3.27;;;;;;;;;;5000223;28;20294;-55
2021/12/13 09:41:01;;;;;;;5.10;3.07;;;;;;;;;;5004009;28;20822;-55
2021/12/13 09:43:46;;;;;;;4.50;3.17;;;;;;;;;;5002653;28;20637;-54
2021/12/13 09:46:12;;;;;;;4.43;3.53;;;;;;;;;;5009065;28;20261;-56
2021/12/13 09:48:42;;;;;;;7.43;3.93;;;;;;;;;;4999857;28;20404;-55
2021/12/13 09:51:12;;;;;;;4.77;3.67;;;;;;;;;;5010352;28;20321;-55
2021/12/13 09:53:38;;;;;;;3.80;3.43;;;;;;;;;;4987062;28;20256;-56
2021/12/13 09:56:06;;;;;;;4.87;3.90;;;;;;;;;;5006120;28;20373;-55
2021/12/13 09:58:51;;;;;;;5.43;3.30;;;;;;;;;;4988410;28;20787;-56
2021/12/13 10:01:21;;;;;;;5.47;3.43;;;;;;;;;;5004479;28;20698;-55
2021/12/13 10:04:03;;;;;;;4.87;3.70;;;;;;;;;;5006713;28;20624;-56
2021/12/13 10:06:39;;;;;;;6.13;3.67;;;;;;;;;;4998902;28;20233;-55
2021/12/13 10:09:05;;;;;;;8.90;6.53;;;;;;;;;;5006622;28;20257;-55
2021/12/13 10:11:42;;;;;;;7.80;6.57;;;;;;;;;;5005131;28;20784;-55
2021/12/13 10:14:08;;;;;;;7.47;5.93;;;;;;;;;;5007348;28;20228;-55
2021/12/13 10:16:35;;;;;;;7.60;5.47;;;;;;;;;;4997886;28;20221;-55
2021/12/13 10:19:01;;;;;;;6.77;5.43;;;;;;;;;;5000571;28;20229;-55
2021/12/13 10:21:32;;;;;;;7.53;5.63;;;;;;;;;;5008985;28;20254;-56
2021/12/13 10:24:18;;;;;;;6.73;5.73;;;;;;;;;;5004569;28;20308;-56
2021/12/13 10:26:44;;;;;;;6.23;5.63;;;;;;;;;;5005509;28;20244;-56
2021/12/13 10:29:11;;;;;;;6.70;5.40;;;;;;;;;;5009207;28;20258;-56
2021/12/13 10:31:39;;;;;;;6.30;5.40;;;;;;;;;;5004512;28;20298;-56
2021/12/13 10:34:06;;;;;;;5.97;5.40;;;;;;;;;;5005486;28;20221;-56
2021/12/13 10:36:32;;;;;;;5.57;5.07;;;;;;;;;;5000927;28;20244;-56
2021/12/13 10:38:59;;;;;;;6.17;5.03;;;;;;;;;;5006279;28;20339;-55
2021/12/13 10:41:35;;;;;;;5.90;5.00;;;;;;;;;;5000227;28;20259;-55
2021/12/13 10:44:05;;;;;;;5.00;4.50;;;;;;;;;;5005930;28;20240;-56
2021/12/13 10:46:41;;;;;;;6.33;4.50;;;;;;;;;;5004634;28;20286;-56
2021/12/13 10:49:18;;;;;;;6.77;4.20;;;;;;;;;;4993123;28;20326;-56
2021/12/13 10:51:46;;;;;;;6.27;4.30;;;;;;;;;;5003077;28;21143;-55
2021/12/13 10:54:13;;;;;;;5.57;4.20;;;;;;;;;;4993599;28;20241;-55
2021/12/13 10:56:40;;;;;;;5.23;4.07;;;;;;;;;;4987047;28;21852;-56
2021/12/13 10:59:09;;;;;;;6.67;3.90;;;;;;;;;;4994232;28;20927;-56
2021/12/13 11:01:36;;;;;;;5.80;4.53;;;;;;;;;;4992743;28;20286;-56
2021/12/13 11:04:06;;;;;;;4.30;3.90;;;;;;;;;;4991569;28;20241;-56
2021/12/13 11:06:35;;;;;;;7.60;4.10;;;;;;;;;;4991151;28;20237;-56
2021/12/13 11:09:01;;;;;;;4.83;4.27;;;;;;;;;;5003911;28;20248;-56
2021/12/13 11:11:28;;;;;;;4.00;3.70;;;;;;;;;;4988049;28;20885;-56
2021/12/13 11:13:55;;;;;;;5.30;3.97;;;;;;;;;;5004058;28;20597;-55
2021/12/13 11:16:23;;;;;;;4.87;4.07;;;;;;;;;;5004796;28;20281;-55
2021/12/13 11:18:49;;;;;;;5.07;4.13;;;;;;;;;;5012811;28;20235;-56
2021/12/13 11:21:17;;;;;;;5.10;3.90;;;;;;;;;;5005409;28;20233;-56
2021/12/13 11:23:44;;;;;;;4.23;3.83;;;;;;;;;;5004104;28;20472;-56
2021/12/13 11:26:10;;;;;;;5.00;4.23;;;;;;;;;;5003803;28;20604;-55
2021/12/13 11:28:36;;;;;;;4.70;4.30;;;;;;;;;;5003741;28;20259;-56
2021/12/13 11:31:29;;;;;;;4.00;3.60;;;;;;;;;;5007805;28;20219;-56
2021/12/13 11:34:01;;;;;;;5.57;3.50;;;;;;;;;;5001758;28;20259;-56
2021/12/13 11:37:07;;;;;;;3.73;3.33;;;;;;;;;;5000074;28;20252;-56
2021/12/13 11:39:46;;;;;;;4.70;3.07;;;;;;;;;;4917480;28;20234;-56
2021/12/13 11:42:30;;;;;;;3.87;2.80;;;;;;;;;;4927636;28;20238;-56
2021/12/13 11:45:05;;;;;;;2.50;2.30;;;;;;;;;;4963986;28;20240;-56
2021/12/13 11:47:48;;;;;;;2.60;2.40;;;;;;;;;;4986337;28;20259;-56
2021/12/13 11:50:32;;;;;;;3.33;2.40;;;;;;;;;;4990978;28;20657;-56
2021/12/13 11:53:18;;;;;;;2.53;2.20;;;;;;;;;;4987324;28;20237;-56
2021/12/13 11:56:03;;;;;;;3.77;2.30;;;;;;;;;;4975988;28;20237;-56
2021/12/13 11:58:47;;;;;;;3.60;1.90;;;;;;;;;;4985745;28;20251;-56
2021/12/13 12:01:32;;;;;;;2.10;1.87;;;;;;;;;;4974655;28;20724;-56
2021/12/13 12:04:07;;;;;;;2.77;2.00;;;;;;;;;;4985528;28;20694;-56
2021/12/13 12:06:45;;;;;;;2.80;1.70;;;;;;;;;;4980763;28;20236;-55
2021/12/13 12:09:30;;;;;;;3.70;2.00;;;;;;;;;;4986103;28;20943;-56
2021/12/13 12:12:04;;;;;;;1.50;1.40;;;;;;;;;;4982216;28;20241;-56
2021/12/13 12:14:29;;;;;;;3.50;1.50;;;;;;;;;;4986436;28;21259;-55
2021/12/13 12:16:57;;;;;;;2.10;1.70;;;;;;;;;;4989196;28;20229;-55
2021/12/13 12:19:25;;;;;;;1.60;1.50;;;;;;;;;;4987211;28;20229;-55
2021/12/13 12:21:51;;;;;;;1.60;1.50;;;;;;;;;;4987887;28;20757;-55
2021/12/13 12:24:24;;;;;;;1.63;1.53;;;;;;;;;;4987650;28;20304;-55
2021/12/13 12:27:01;;;;;;;1.60;1.50;;;;;;;;;;4982132;28;20234;-55
2021/12/13 12:29:28;;;;;;;3.40;1.67;;;;;;;;;;4986385;28;20291;-55
2021/12/13 12:31:59;;;;;;;2.27;1.50;;;;;;;;;;4974919;28;20241;-55
2021/12/13 12:34:25;;;;;;;2.83;1.40;;;;;;;;;;4984412;28;20284;-55
2021/12/13 12:36:56;;;;;;;3.80;1.43;;;;;;;;;;4998567;28;20268;-55
2021/12/13 12:39:41;;;;;;;2.93;1.53;;;;;;;;;;5014150;28;20236;-55
2021/12/13 12:42:26;;;;;;;1.57;1.47;;;;;;;;;;5004686;28;20702;-55
2021/12/13 12:44:55;;;;;;;1.50;1.33;;;;;;;;;;5000923;28;20237;-55
2021/12/13 12:47:36;;;;;;;1.40;1.30;;;;;;;;;;4997069;28;20246;-55
2021/12/13 12:50:16;;;;;;;3.07;1.70;;;;;;;;;;5008838;28;20232;-55
2021/12/13 12:52:51;;;;;;;3.87;1.40;;;;;;;;;;5009064;28;20318;-55
2021/12/13 12:55:18;;;;;;;1.50;1.40;;;;;;;;;;4998147;28;20254;-55
2021/12/13 12:57:44;;;;;;;2.50;1.30;;;;;;;;;;5007846;28;20298;-55
2021/12/13 13:00:11;;;;;;;1.60;1.30;;;;;;;;;;5002891;28;20233;-55
2021/12/13 13:02:37;;;;;;;1.67;1.40;;;;;;;;;;5007354;28;20247;-55
2021/12/13 13:05:04;;;;;;;5.60;1.83;;;;;;;;;;5000817;28;20721;-55
2021/12/13 13:07:31;;;;;;;4.20;1.90;;;;;;;;;;5004159;28;20264;-55
2021/12/13 13:09:58;;;;;;;1.10;1.10;;;;;;;;;;5006375;28;20256;-55
2021/12/13 13:12:26;;;;;;;1.60;1.50;;;;;;;;;;5008143;28;20244;-55
2021/12/13 13:14:56;;;;;;;1.67;1.57;;;;;;;;;;5007270;28;20267;-55
2021/12/13 13:17:23;;;;;;;1.60;1.50;;;;;;;;;;5003601;28;20793;-55
2021/12/13 13:19:49;;;;;;;2.70;1.53;;;;;;;;;;5008402;28;21824;-54
2021/12/13 13:22:14;;;;;;;3.37;1.60;;;;;;;;;;5003597;28;20740;-54
2021/12/13 13:24:41;;;;;;;3.83;1.80;;;;;;;;;;5008384;28;20721;-55
2021/12/13 13:27:07;;;;;;;2.43;1.83;;;;;;;;;;5010954;28;20360;-55
2021/12/13 13:29:34;;;;;;;2.13;1.67;;;;;;;;;;5004318;28;20228;-55
2021/12/13 13:32:00;;;;;;;2.30;1.90;;;;;;;;;;5004354;28;20235;-55
2021/12/13 13:34:31;;;;;;;1.70;1.53;;;;;;;;;;5003830;28;20625;-55
2021/12/13 13:37:01;;;;;;;1.97;1.40;;;;;;;;;;5006930;28;20241;-55
2021/12/13 13:39:33;;;;;;;2.07;1.60;;;;;;;;;;5008141;28;20343;-61
2021/12/13 13:42:09;;;;;;;1.53;1.43;;;;;;;;;;5000531;28;20260;-58
2021/12/13 13:44:42;;;;;;;1.90;1.70;;;;;;;;;;4993919;28;20720;-58
2021/12/13 13:47:10;;;;;;;1.70;1.60;;;;;;;;;;5005232;28;20270;-58
2021/12/13 13:49:36;;;;;;;3.10;1.60;;;;;;;;;;5012736;28;20695;-60
2021/12/13 13:52:22;;;;;;;1.80;1.70;;;;;;;;;;5002201;28;20224;-61
2021/12/13 13:54:50;;;;;;;2.80;1.53;;;;;;;;;;4995788;28;20714;-58
2021/12/13 13:57:17;;;;;;;3.13;1.80;;;;;;;;;;4995068;28;20229;-59
2021/12/13 13:59:43;;;;;;;3.50;1.63;;;;;;;;;;4985902;28;20256;-60
2021/12/13 14:02:09;;;;;;;2.13;1.70;;;;;;;;;;4986983;28;20252;-58
2021/12/13 14:04:36;;;;;;;2.90;1.90;;;;;;;;;;4988531;28;20626;-59
2021/12/13 14:07:07;;;;;;;1.77;1.60;;;;;;;;;;4999586;28;20737;-59
2021/12/13 14:09:40;;;;;;;2.37;1.60;;;;;;;;;;5006020;28;20636;-59
2021/12/13 14:12:13;;;;;;;2.87;1.40;;;;;;;;;;5003757;28;20229;-58
2021/12/13 14:14:42;;;;;;;1.70;1.60;;;;;;;;;;4999947;28;20747;-59
2021/12/13 14:17:08;;;;;;;2.20;1.70;;;;;;;;;;5004115;28;20339;-59
2021/12/13 14:19:44;;;;;;;3.20;1.80;;;;;;;;;;4997536;28;20237;-58
2021/12/13 14:22:10;;;;;;;2.70;1.60;;;;;;;;;;5002418;28;22078;-58
2021/12/13 14:24:36;;;;;;;2.07;1.60;;;;;;;;;;5000883;28;20240;-59
2021/12/13 14:27:22;;;;;;;2.60;1.63;;;;;;;;;;5004303;28;20272;-58
2021/12/13 14:29:48;;;;;;;1.70;1.60;;;;;;;;;;5007125;28;20248;-59
2021/12/13 14:32:15;;;;;;;1.57;1.40;;;;;;;;;;5005601;28;20233;-59
2021/12/13 14:34:41;;;;;;;2.77;1.50;;;;;;;;;;4992815;28;20232;-59
2021/12/13 14:37:07;;;;;;;2.43;2.23;;;;;;;;;;5004184;28;20228;-59
2021/12/13 14:39:33;;;;;;;3.73;2.10;;;;;;;;;;5004692;28;20286;-59
2021/12/13 14:42:00;;;;;;;2.37;2.17;;;;;;;;;;4984746;28;20631;-59
2021/12/13 14:44:27;;;;;;;2.67;2.30;;;;;;;;;;4981303;28;20247;-58
2021/12/13 14:46:54;;;;;;;2.53;2.33;;;;;;;;;;5010825;28;20676;-58
2021/12/13 14:49:24;;;;;;;2.10;1.90;;;;;;;;;;5003730;28;20243;-58
2021/12/13 14:51:52;;;;;;;2.17;1.97;;;;;;;;;;4999122;28;20227;-58
2021/12/13 14:54:19;;;;;;;3.00;1.90;;;;;;;;;;5004968;28;20233;-59
2021/12/13 14:56:48;;;;;;;2.53;1.90;;;;;;;;;;5008024;28;20241;-56
2021/12/13 14:59:14;;;;;;;2.30;2.00;;;;;;;;;;5003730;28;20232;-57
2021/12/13 15:01:40;;;;;;;4.50;1.70;;;;;;;;;;4991031;28;20691;-59
2021/12/13 15:04:08;;;;;;;2.20;1.60;;;;;;;;;;4989947;28;24533;-58
2021/12/13 15:06:42;;;;;;;2.20;1.97;;;;;;;;;;4981628;28;20628;-58
2021/12/13 15:09:28;;;;;;;2.30;2.00;;;;;;;;;;4992056;28;20847;-59